Time;durP1;ratioP1;P1;durP2;ratioP2;P2;SDS_P1;SDS_P2;PMS_P1;PMS_P2;Temp;Humidity;BMP_temperature;BMP_pressure;BME280_temperature;BME280_humidity;BME280_pressure;Samples;Min_cycle;Max_cycle;Signal;HPM_P1;HPM_P2
2023/11/23 00:01:10;;;;;;;6.80;2.90;;;4.40;99.90;;;;;;5006110;28;20081;-77
2023/11/23 00:03:56;;;;;;;5.57;2.95;;;4.40;99.90;;;;;;5012005;28;20183;-77
2023/11/23 00:06:43;;;;;;;5.85;2.92;;;4.50;99.90;;;;;;5037908;28;20469;-76
2023/11/23 00:09:29;;;;;;;5.47;2.92;;;4.50;99.90;;;;;;5017088;28;20042;-76
2023/11/23 00:12:15;;;;;;;10.30;3.03;;;4.50;99.90;;;;;;5009422;28;20041;-76
2023/11/23 00:15:05;;;;;;;5.88;2.40;;;4.60;99.90;;;;;;5018133;28;20041;-76
2023/11/23 00:17:54;;;;;;;5.95;3.20;;;4.60;99.90;;;;;;5033339;28;20134;-77
2023/11/23 00:20:40;;;;;;;4.75;2.75;;;4.60;99.90;;;;;;5036758;28;20033;-77
2023/11/23 00:23:26;;;;;;;6.93;3.10;;;4.60;99.90;;;;;;5026773;28;20116;-76
2023/11/23 00:26:13;;;;;;;4.75;2.65;;;4.60;99.90;;;;;;5018616;28;20041;-76
2023/11/23 00:29:00;;;;;;;5.72;3.00;;;4.60;99.90;;;;;;5035320;28;20040;-78
2023/11/23 00:31:46;;;;;;;9.73;3.17;;;4.60;99.90;;;;;;5024230;28;20498;-77
2023/11/23 00:34:32;;;;;;;7.82;3.40;;;4.50;99.90;;;;;;5004661;28;20045;-78
2023/11/23 00:37:18;;;;;;;5.40;2.90;;;4.50;99.90;;;;;;5043838;28;20029;-78
2023/11/23 00:40:05;;;;;;;8.77;3.05;;;4.60;99.90;;;;;;5043851;28;20041;-79
2023/11/23 00:42:51;;;;;;;6.80;3.55;;;4.50;99.90;;;;;;5058757;28;20466;-78
2023/11/23 00:45:37;;;;;;;4.88;2.90;;;4.50;99.90;;;;;;5008590;28;20049;-77
2023/11/23 00:48:23;;;;;;;6.82;3.10;;;4.60;99.90;;;;;;5010547;28;20441;-78
2023/11/23 00:51:09;;;;;;;7.35;3.33;;;4.60;99.90;;;;;;5030025;28;20446;-78
2023/11/23 00:53:55;;;;;;;6.13;3.08;;;4.70;99.90;;;;;;5024998;28;20084;-77
2023/11/23 00:56:41;;;;;;;5.68;3.80;;;4.70;99.90;;;;;;5046296;28;20044;-77
2023/11/23 00:59:27;;;;;;;5.60;3.40;;;4.70;99.90;;;;;;5030982;28;20037;-77
2023/11/23 01:02:14;;;;;;;7.82;3.42;;;4.70;99.90;;;;;;5026863;28;20041;-76
2023/11/23 01:05:00;;;;;;;5.75;3.05;;;4.80;99.90;;;;;;5033830;28;20115;-76
2023/11/23 01:07:46;;;;;;;5.43;3.03;;;4.80;99.90;;;;;;5022806;28;20111;-79
2023/11/23 01:10:32;;;;;;;4.80;3.35;;;4.80;99.90;;;;;;5032918;28;20041;-79
2023/11/23 01:13:18;;;;;;;6.10;3.30;;;4.80;99.90;;;;;;5041210;28;20056;-78
2023/11/23 01:16:04;;;;;;;6.65;3.42;;;4.80;99.90;;;;;;5008734;28;20038;-78
2023/11/23 01:18:50;;;;;;;7.90;3.70;;;4.80;99.90;;;;;;5023437;28;20148;-78
2023/11/23 01:21:36;;;;;;;7.93;3.28;;;4.80;99.90;;;;;;5054405;28;20052;-77
2023/11/23 01:24:22;;;;;;;7.28;3.35;;;4.90;99.90;;;;;;5030137;28;20120;-78
2023/11/23 01:27:08;;;;;;;8.45;3.47;;;4.90;99.90;;;;;;5056797;28;20048;-78
2023/11/23 01:29:54;;;;;;;5.90;3.42;;;4.90;99.90;;;;;;5023348;28;20033;-78
2023/11/23 01:32:40;;;;;;;8.25;3.13;;;4.90;99.90;;;;;;5023943;28;20038;-78
2023/11/23 01:35:26;;;;;;;8.73;4.55;;;4.90;99.90;;;;;;5018737;28;20044;-77
2023/11/23 01:38:16;;;;;;;11.32;3.60;;;5.00;99.90;;;;;;5016146;28;20033;-78
2023/11/23 01:41:03;;;;;;;5.45;3.40;;;5.00;99.90;;;;;;5035490;28;20037;-78
2023/11/23 01:43:49;;;;;;;7.38;3.47;;;5.00;99.90;;;;;;5032295;28;20041;-77
2023/11/23 01:46:35;;;;;;;5.65;3.47;;;5.00;99.90;;;;;;5004954;28;20046;-78
2023/11/23 01:49:21;;;;;;;7.18;3.97;;;5.00;99.90;;;;;;5006251;28;20076;-78
2023/11/23 01:52:07;;;;;;;6.53;3.80;;;5.10;99.90;;;;;;5017123;28;20042;-78
2023/11/23 01:54:53;;;;;;;7.75;4.65;;;5.10;99.90;;;;;;5038486;28;20037;-78
2023/11/23 01:57:39;;;;;;;8.48;4.05;;;5.20;99.90;;;;;;5017750;28;20038;-78
2023/11/23 02:00:25;;;;;;;7.07;4.28;;;5.20;99.90;;;;;;5032368;28;20040;-78
2023/11/23 02:03:11;;;;;;;7.10;3.90;;;5.20;99.90;;;;;;5022334;28;20103;-79
2023/11/23 02:05:57;;;;;;;9.90;4.75;;;5.20;99.90;;;;;;5033370;28;20496;-78
2023/11/23 02:08:43;;;;;;;6.82;3.80;;;5.20;99.90;;;;;;5054379;28;20041;-78
2023/11/23 02:11:31;;;;;;;10.52;5.55;;;5.20;99.90;;;;;;5042498;28;20048;-78
2023/11/23 02:14:18;;;;;;;;;;;5.20;99.90;;;;;;5020342;28;20478;-78
2023/11/23 02:17:18;;;;;;;7.75;4.63;;;5.20;99.90;;;;;;5032902;28;19923;-77
2023/11/23 02:20:08;;;;;;;9.63;4.68;;;5.20;99.90;;;;;;5009315;28;20482;-78
2023/11/23 02:22:55;;;;;;;8.27;4.50;;;5.20;99.90;;;;;;5054437;28;20072;-78
2023/11/23 02:25:42;;;;;;;9.77;5.20;;;5.30;99.90;;;;;;5013755;28;20033;-77
2023/11/23 02:28:32;;;;;;;10.45;5.43;;;5.20;99.90;;;;;;5001511;28;20100;-77
2023/11/23 02:31:18;;;;;;;9.68;4.88;;;5.20;99.90;;;;;;5045230;28;20131;-78
2023/11/23 02:34:04;;;;;;;10.02;5.75;;;5.20;99.90;;;;;;5028779;28;20135;-77
2023/11/23 02:36:50;;;;;;;10.35;5.20;;;5.20;99.90;;;;;;5029505;28;20065;-79
2023/11/23 02:39:36;;;;;;;8.23;5.15;;;5.20;99.90;;;;;;5016954;28;20542;-78
2023/11/23 02:42:22;;;;;;;10.52;5.40;;;5.20;99.90;;;;;;5039272;28;20033;-79
2023/11/23 02:45:08;;;;;;;10.48;6.30;;;5.20;99.90;;;;;;5023420;28;20029;-78
2023/11/23 02:47:54;;;;;;;9.07;5.82;;;5.20;99.90;;;;;;5024773;28;20533;-78
2023/11/23 02:50:40;;;;;;;8.20;4.97;;;5.20;99.90;;;;;;5035581;28;20041;-78
2023/11/23 02:53:42;;;;;;;10.15;5.68;;;5.20;99.90;;;;;;5045823;28;20044;-77
2023/11/23 02:56:28;;;;;;;10.23;5.68;;;5.20;99.90;;;;;;5037246;28;20087;-78
2023/11/23 02:59:16;;;;;;;10.73;6.00;;;5.20;99.90;;;;;;5007271;28;20034;-78
2023/11/23 03:02:02;;;;;;;10.38;5.70;;;5.20;99.90;;;;;;5007861;28;20037;-78
2023/11/23 03:04:48;;;;;;;10.68;5.82;;;5.30;99.90;;;;;;5037687;28;20044;-79
2023/11/23 03:07:34;;;;;;;9.35;5.53;;;5.30;99.90;;;;;;5004063;28;20049;-78
2023/11/23 03:10:22;;;;;;;11.18;5.85;;;5.20;99.90;;;;;;5017603;28;20077;-78
2023/11/23 03:13:08;;;;;;;13.40;6.57;;;5.30;99.90;;;;;;5023031;28;20045;-78
2023/11/23 03:15:54;;;;;;;10.15;5.85;;;5.20;99.90;;;;;;5015995;28;20137;-78
2023/11/23 03:18:41;;;;;;;11.90;7.00;;;5.30;99.90;;;;;;5016054;28;20116;-78
2023/11/23 03:21:27;;;;;;;9.60;5.68;;;5.30;99.90;;;;;;5016223;28;20034;-77
2023/11/23 03:24:13;;;;;;;12.00;6.10;;;5.30;99.90;;;;;;5005441;28;20073;-78
2023/11/23 03:26:59;;;;;;;13.05;6.10;;;5.30;99.90;;;;;;5044610;28;20048;-78
2023/11/23 03:29:45;;;;;;;9.75;6.05;;;5.30;99.90;;;;;;5042355;28;20051;-78
2023/11/23 03:32:32;;;;;;;10.63;6.07;;;5.20;99.90;;;;;;5022763;28;20376;-77
2023/11/23 03:35:18;;;;;;;11.02;5.90;;;5.30;99.90;;;;;;5028638;28;20067;-78
2023/11/23 03:38:05;;;;;;;10.30;5.85;;;5.30;99.90;;;;;;5012763;28;20486;-77
2023/11/23 03:40:51;;;;;;;11.05;6.60;;;5.30;99.90;;;;;;5036758;28;20052;-77
2023/11/23 03:43:37;;;;;;;11.57;6.30;;;5.30;99.90;;;;;;5035827;28;20108;-78
2023/11/23 03:46:23;;;;;;;10.60;7.10;;;5.30;99.90;;;;;;5002903;28;20041;-77
2023/11/23 03:49:09;;;;;;;13.68;6.75;;;5.20;99.90;;;;;;5041544;28;20037;-78
2023/11/23 03:51:57;;;;;;;14.00;7.68;;;5.20;99.90;;;;;;5030284;28;20053;-78
2023/11/23 03:54:43;;;;;;;11.77;7.43;;;5.20;99.90;;;;;;5036761;28;20029;-77
2023/11/23 03:57:30;;;;;;;12.52;7.32;;;5.20;99.90;;;;;;5038875;28;20033;-77
2023/11/23 04:00:16;;;;;;;13.80;6.97;;;5.20;99.90;;;;;;5043417;28;20355;-78
2023/11/23 04:03:03;;;;;;;15.23;8.13;;;5.20;99.90;;;;;;5036441;28;20421;-78
2023/11/23 04:05:49;;;;;;;12.73;7.65;;;5.20;99.90;;;;;;5026491;28;20196;-78
2023/11/23 04:08:35;;;;;;;15.23;7.40;;;5.20;99.90;;;;;;5034421;28;20068;-78
2023/11/23 04:11:23;;;;;;;14.07;7.63;;;5.20;99.90;;;;;;5032471;28;20041;-77
2023/11/23 04:14:09;;;;;;;13.48;8.02;;;5.10;99.90;;;;;;5014440;28;20041;-76
2023/11/23 04:16:55;;;;;;;13.15;7.88;;;5.20;99.90;;;;;;5022891;28;20041;-78
2023/11/23 04:19:41;;;;;;;14.30;8.68;;;5.20;99.90;;;;;;5024030;28;20038;-77
2023/11/23 04:22:27;;;;;;;16.65;8.65;;;5.20;99.90;;;;;;5034187;28;20398;-78
2023/11/23 04:25:13;;;;;;;13.82;7.63;;;5.20;99.90;;;;;;5023033;28;20041;-78
2023/11/23 04:27:59;;;;;;;16.92;9.50;;;5.20;99.90;;;;;;5038304;28;20343;-78
2023/11/23 04:30:45;;;;;;;17.52;9.80;;;5.20;99.90;;;;;;5024651;28;20541;-78
2023/11/23 04:33:31;;;;;;;16.25;9.38;;;5.30;99.90;;;;;;5016152;28;20076;-78
2023/11/23 04:36:17;;;;;;;17.60;9.55;;;5.20;99.90;;;;;;5038897;28;20037;-78
2023/11/23 04:39:04;;;;;;;13.55;8.40;;;5.20;99.90;;;;;;5014197;28;20033;-79
2023/11/23 04:41:50;;;;;;;14.88;9.27;;;5.20;99.90;;;;;;5019062;28;20044;-78
2023/11/23 04:44:36;;;;;;;13.25;8.55;;;5.30;99.90;;;;;;5011351;28;20033;-78
2023/11/23 04:47:23;;;;;;;18.52;10.00;;;5.30;99.90;;;;;;5043880;28;20041;-78
2023/11/23 04:50:10;;;;;;;17.67;9.70;;;5.30;99.90;;;;;;5026020;28;20041;-77
2023/11/23 04:52:57;;;;;;;15.95;10.23;;;5.40;99.90;;;;;;5057571;28;20476;-77
2023/11/23 04:55:43;;;;;;;18.25;11.07;;;5.40;99.90;;;;;;5024293;28;20056;-77
2023/11/23 04:58:29;;;;;;;21.08;11.82;;;5.40;99.90;;;;;;5026867;28;20535;-78
2023/11/23 05:01:15;;;;;;;15.95;9.95;;;5.40;99.90;;;;;;5019586;28;20041;-76
2023/11/23 05:04:01;;;;;;;16.83;11.25;;;5.40;99.90;;;;;;5007598;28;20348;-77
2023/11/23 05:06:47;;;;;;;22.30;11.40;;;5.50;99.90;;;;;;5026521;28;20446;-78
2023/11/23 05:09:33;;;;;;;16.65;10.52;;;5.40;99.90;;;;;;5024997;28;20041;-77
2023/11/23 05:12:19;;;;;;;16.73;10.50;;;5.40;99.90;;;;;;5042550;28;20044;-78
2023/11/23 05:15:06;;;;;;;20.75;11.13;;;5.40;99.90;;;;;;5023086;28;20099;-78
2023/11/23 05:17:52;;;;;;;18.38;11.07;;;5.40;99.90;;;;;;5017674;28;20469;-77
2023/11/23 05:20:38;;;;;;;17.10;11.00;;;5.40;99.90;;;;;;5009493;28;20037;-78
2023/11/23 05:23:25;;;;;;;20.77;11.88;;;5.40;99.90;;;;;;5010422;28;20044;-78
2023/11/23 05:26:11;;;;;;;22.00;13.27;;;5.30;99.90;;;;;;5009246;28;20037;-77
2023/11/23 05:28:57;;;;;;;23.33;11.30;;;5.40;99.90;;;;;;5024261;28;20143;-77
2023/11/23 05:31:43;;;;;;;18.88;11.88;;;5.40;99.90;;;;;;5036550;28;20049;-77
2023/11/23 05:34:29;;;;;;;21.15;12.43;;;5.40;99.90;;;;;;5003763;28;20080;-76
2023/11/23 05:37:15;;;;;;;26.33;15.27;;;5.40;99.90;;;;;;5021906;28;20033;-78
2023/11/23 05:40:01;;;;;;;27.88;13.80;;;5.40;99.90;;;;;;5044110;28;20075;-77
2023/11/23 05:42:49;;;;;;;22.70;13.13;;;5.40;99.90;;;;;;5020946;28;20462;-78
2023/11/23 05:45:35;;;;;;;17.30;11.55;;;5.50;99.90;;;;;;4990681;28;20054;-78
2023/11/23 05:48:21;;;;;;;23.25;13.32;;;5.50;99.90;;;;;;5005656;28;20062;-79
2023/11/23 05:51:07;;;;;;;18.33;12.73;;;5.50;99.90;;;;;;5044424;28;20342;-78
2023/11/23 05:53:53;;;;;;;20.90;12.95;;;5.50;99.90;;;;;;5043364;28;20381;-76
2023/11/23 05:56:40;;;;;;;20.52;12.65;;;5.60;99.90;;;;;;5043803;28;20037;-77
2023/11/23 05:59:26;;;;;;;24.88;15.20;;;5.60;99.90;;;;;;5004694;28;20437;-77
2023/11/23 06:02:12;;;;;;;21.50;13.98;;;5.60;99.90;;;;;;5031417;28;20052;-77
2023/11/23 06:04:59;;;;;;;20.90;12.40;;;5.60;99.90;;;;;;5041624;28;20041;-77
2023/11/23 06:07:45;;;;;;;18.77;12.32;;;5.60;99.90;;;;;;5035521;28;20669;-78
2023/11/23 06:10:33;;;;;;;26.80;15.05;;;5.70;99.90;;;;;;5032944;28;20493;-78
2023/11/23 06:13:19;;;;;;;23.30;13.23;;;5.70;99.90;;;;;;5030145;28;20041;-78
2023/11/23 06:16:05;;;;;;;23.92;16.40;;;5.60;99.90;;;;;;5056599;28;20377;-78
2023/11/23 06:18:52;;;;;;;21.40;12.63;;;5.70;99.90;;;;;;5003108;28;20029;-77
2023/11/23 06:21:38;;;;;;;23.98;13.65;;;5.70;99.90;;;;;;5006918;28;20566;-78
2023/11/23 06:24:24;;;;;;;19.58;12.27;;;5.70;99.90;;;;;;5003324;28;20041;-78
2023/11/23 06:27:10;;;;;;;21.40;13.25;;;5.80;99.90;;;;;;5047673;28;20044;-77
2023/11/23 06:29:56;;;;;;;23.00;14.43;;;5.70;99.90;;;;;;5027957;28;20129;-77
2023/11/23 06:32:44;;;;;;;20.77;12.75;;;5.80;99.90;;;;;;5028360;28;20041;-77
2023/11/23 06:35:30;;;;;;;19.92;13.20;;;5.80;99.90;;;;;;5041790;28;20120;-75
2023/11/23 06:38:16;;;;;;;22.95;13.80;;;5.80;99.90;;;;;;5036088;28;20037;-76
2023/11/23 06:41:03;;;;;;;22.98;14.63;;;5.90;99.90;;;;;;5022359;28;20037;-78
2023/11/23 06:43:49;;;;;;;22.10;12.85;;;5.90;99.90;;;;;;5021751;28;20049;-77
2023/11/23 06:46:35;;;;;;;22.10;13.63;;;6.00;99.90;;;;;;5023480;28;20033;-78
2023/11/23 06:49:21;;;;;;;22.27;13.10;;;6.00;99.90;;;;;;5043773;28;20072;-78
2023/11/23 06:52:07;;;;;;;19.92;13.95;;;6.00;99.90;;;;;;5033803;28;20037;-77
2023/11/23 06:54:54;;;;;;;22.50;12.82;;;6.00;99.90;;;;;;5004145;28;20033;-77
2023/11/23 06:57:46;;;;;;;19.88;13.45;;;6.10;99.90;;;;;;5016823;28;20038;-77
2023/11/23 07:00:32;;;;;;;18.92;13.27;;;6.10;99.90;;;;;;5009974;28;20036;-78
2023/11/23 07:03:21;;;;;;;19.15;12.95;;;6.10;99.90;;;;;;5023582;28;20045;-77
2023/11/23 07:06:07;;;;;;;19.92;13.43;;;6.20;99.90;;;;;;5044657;28;20037;-78
2023/11/23 07:08:53;;;;;;;20.88;14.73;;;6.20;99.90;;;;;;4999836;28;20108;-77
2023/11/23 07:11:41;;;;;;;25.02;15.43;;;6.30;99.90;;;;;;5002731;28;20045;-78
2023/11/23 07:14:28;;;;;;;22.92;15.05;;;6.30;99.90;;;;;;5027106;28;20109;-79
2023/11/23 07:17:14;;;;;;;19.83;14.20;;;6.30;99.90;;;;;;5006348;28;20533;-79
2023/11/23 07:20:00;;;;;;;20.35;13.85;;;6.40;99.90;;;;;;5012874;28;20044;-78
2023/11/23 07:22:46;;;;;;;23.58;16.23;;;6.40;99.90;;;;;;5028993;28;20041;-77
2023/11/23 07:25:33;;;;;;;25.13;17.80;;;6.50;99.90;;;;;;5023686;28;20033;-78
2023/11/23 07:28:22;;;;;;;30.27;17.98;;;6.50;99.90;;;;;;5009496;28;20040;-79
2023/11/23 07:31:09;;;;;;;28.23;18.40;;;6.60;99.90;;;;;;5017428;28;20045;-78
2023/11/23 07:33:55;;;;;;;28.02;17.67;;;6.60;99.90;;;;;;4991922;28;20113;-77
2023/11/23 07:36:41;;;;;;;26.20;17.85;;;6.60;99.90;;;;;;5019336;28;20127;-78
2023/11/23 07:39:27;;;;;;;32.55;20.83;;;6.70;99.90;;;;;;5019916;28;20495;-78
2023/11/23 07:42:15;;;;;;;31.00;20.13;;;6.70;99.90;;;;;;5019650;28;20048;-78
2023/11/23 07:45:02;;;;;;;31.30;18.77;;;6.70;99.90;;;;;;5034682;28;20459;-78
2023/11/23 07:47:48;;;;;;;29.73;18.45;;;6.70;99.90;;;;;;5046461;28;20041;-77
2023/11/23 07:50:38;;;;;;;34.47;21.38;;;6.80;99.90;;;;;;5032662;28;20042;-78
2023/11/23 07:53:28;;;;;;;34.70;20.58;;;6.80;99.90;;;;;;5006045;28;20518;-79
2023/11/23 07:56:16;;;;;;;32.92;18.85;;;6.80;99.90;;;;;;5032813;28;20053;-78
2023/11/23 07:59:02;;;;;;;36.05;22.40;;;6.80;99.90;;;;;;5016244;28;20060;-79
2023/11/23 08:01:48;;;;;;;39.45;21.38;;;6.90;99.90;;;;;;5037813;28;20064;-79
2023/11/23 08:04:34;;;;;;;35.42;20.73;;;6.90;99.90;;;;;;5052164;28;20424;-78
2023/11/23 08:07:20;;;;;;;34.90;22.70;;;6.90;99.90;;;;;;5024663;28;20116;-77
2023/11/23 08:10:08;;;;;;;31.00;19.27;;;6.90;99.90;;;;;;5033284;28;20124;-77
2023/11/23 08:12:54;;;;;;;33.55;21.52;;;7.00;99.90;;;;;;5031864;28;20044;-77
2023/11/23 08:15:41;;;;;;;36.35;20.90;;;7.00;99.90;;;;;;5001039;28;20033;-78
2023/11/23 08:18:27;;;;;;;29.48;19.70;;;7.10;99.90;;;;;;5054366;28;20068;-79
2023/11/23 08:21:13;;;;;;;25.67;17.52;;;7.10;99.90;;;;;;5005880;28;20065;-78
2023/11/23 08:23:59;;;;;;;34.05;22.88;;;7.10;99.90;;;;;;5045380;28;20049;-77
2023/11/23 08:26:45;;;;;;;27.45;17.15;;;7.20;99.90;;;;;;5000830;28;20069;-78
2023/11/23 08:29:32;;;;;;;30.90;19.00;;;7.20;99.90;;;;;;5004104;28;20109;-78
2023/11/23 08:32:18;;;;;;;31.53;18.80;;;7.30;99.90;;;;;;5030563;28;20049;-79
2023/11/23 08:35:08;;;;;;;27.52;16.27;;;7.30;99.90;;;;;;5030883;28;20077;-79
2023/11/23 08:37:54;;;;;;;26.60;18.58;;;7.40;99.90;;;;;;5020210;28;20371;-79
2023/11/23 08:40:41;;;;;;;26.80;17.17;;;7.40;99.90;;;;;;5006455;28;20408;-78
2023/11/23 08:43:27;;;;;;;26.98;16.45;;;7.50;99.90;;;;;;5031076;28;20124;-78
2023/11/23 08:46:14;;;;;;;27.08;16.58;;;7.50;99.90;;;;;;5020997;28;20038;-78
2023/11/23 08:49:00;;;;;;;25.85;17.33;;;7.60;99.90;;;;;;5013942;28;20040;-78
2023/11/23 08:51:46;;;;;;;26.13;14.70;;;7.60;99.90;;;;;;5027695;28;20535;-78
2023/11/23 08:54:34;;;;;;;22.35;15.40;;;7.60;99.90;;;;;;5005770;28;20135;-79
2023/11/23 08:57:20;;;;;;;23.23;15.97;;;7.70;99.90;;;;;;5013509;28;20037;-78
2023/11/23 09:00:10;;;;;;;22.85;14.95;;;7.70;99.90;;;;;;5009728;28;20037;-78
2023/11/23 09:02:56;;;;;;;21.88;15.27;;;7.70;99.90;;;;;;5047068;28;20045;-78
2023/11/23 09:05:43;;;;;;;26.33;15.65;;;7.70;99.90;;;;;;5028623;28;20053;-78
2023/11/23 09:08:29;;;;;;;25.75;15.60;;;7.80;99.90;;;;;;5040238;28;20049;-78
2023/11/23 09:11:16;;;;;;;23.75;15.30;;;7.90;99.90;;;;;;5023067;28;20113;-78
2023/11/23 09:14:02;;;;;;;24.20;15.13;;;7.80;99.90;;;;;;5030966;28;20075;-77
2023/11/23 09:16:48;;;;;;;24.45;15.43;;;7.90;99.90;;;;;;5024235;28;20037;-77
2023/11/23 09:19:34;;;;;;;22.00;14.70;;;7.90;99.90;;;;;;5039284;28;20385;-78
2023/11/23 09:22:21;;;;;;;26.33;15.27;;;7.90;99.90;;;;;;5011547;28;20042;-78
2023/11/23 09:25:08;;;;;;;24.55;16.67;;;8.00;99.90;;;;;;4999182;28;20056;-78
2023/11/23 09:27:54;;;;;;;23.13;15.57;;;8.00;99.90;;;;;;5056856;28;20041;-78
2023/11/23 09:30:41;;;;;;;21.52;14.25;;;8.10;99.90;;;;;;5017660;28;20056;-78
2023/11/23 09:33:27;;;;;;;22.27;14.02;;;8.10;99.90;;;;;;5039711;28;20123;-79
2023/11/23 09:36:14;;;;;;;21.25;13.75;;;8.20;99.90;;;;;;5004528;28;20117;-79
2023/11/23 09:39:00;;;;;;;19.83;13.27;;;8.20;99.90;;;;;;5034749;28;20049;-79
2023/11/23 09:41:47;;;;;;;17.60;12.50;;;8.30;99.90;;;;;;5006594;28;20375;-79
2023/11/23 09:44:37;;;;;;;20.23;13.70;;;8.30;99.90;;;;;;5033083;28;20037;-78
2023/11/23 09:47:31;;;;;;;21.40;12.68;;;8.40;99.90;;;;;;5037451;28;20065;-79
2023/11/23 09:50:20;;;;;;;22.02;13.98;;;8.50;99.90;;;;;;4996791;28;20048;-78
2023/11/23 09:53:06;;;;;;;19.73;13.27;;;8.50;99.90;;;;;;4997737;28;20110;-79
2023/11/23 09:55:53;;;;;;;16.92;12.40;;;8.60;99.90;;;;;;5046493;28;20120;-78
2023/11/23 09:58:39;;;;;;;17.70;11.68;;;8.60;99.90;;;;;;5009006;28;20041;-78
2023/11/23 10:01:25;;;;;;;16.25;11.25;;;8.70;99.90;;;;;;5037541;28;20098;-79
2023/11/23 10:04:11;;;;;;;15.73;10.70;;;8.70;99.90;;;;;;5028994;28;20098;-79
2023/11/23 10:06:57;;;;;;;16.35;10.98;;;8.80;99.90;;;;;;4993817;28;20137;-79
2023/11/23 10:09:44;;;;;;;15.48;10.80;;;8.90;99.90;;;;;;5026598;28;20516;-78
2023/11/23 10:12:30;;;;;;;14.98;10.82;;;9.00;99.90;;;;;;5028119;28;20076;-78
2023/11/23 10:15:17;;;;;;;14.85;10.15;;;9.00;99.90;;;;;;5025127;28;20378;-78
2023/11/23 10:18:03;;;;;;;16.88;11.05;;;9.10;99.90;;;;;;5043403;28;20037;-79
2023/11/23 10:20:51;;;;;;;17.67;11.10;;;9.10;99.90;;;;;;5000715;28;20033;-79
2023/11/23 10:23:43;;;;;;;16.05;10.00;;;9.10;99.90;;;;;;5016396;28;20092;-78
2023/11/23 10:26:29;;;;;;;14.35;9.63;;;9.20;99.90;;;;;;4989930;28;20312;-78
2023/11/23 10:29:15;;;;;;;14.38;9.63;;;9.20;99.90;;;;;;5003992;28;20034;-77
2023/11/23 10:32:01;;;;;;;15.07;11.00;;;9.20;99.90;;;;;;5012648;28;20112;-76
2023/11/23 10:34:47;;;;;;;12.35;9.75;;;9.20;99.90;;;;;;5020762;28;20038;-77
2023/11/23 10:37:33;;;;;;;16.83;12.45;;;9.30;99.90;;;;;;5035707;28;20132;-76
2023/11/23 10:40:21;;;;;;;13.60;10.88;;;9.30;99.90;;;;;;5006544;28;20065;-76
2023/11/23 10:43:09;;;;;;;18.33;12.63;;;9.30;99.90;;;;;;5015998;28;20048;-76
2023/11/23 10:45:55;;;;;;;18.08;12.52;;;9.40;99.90;;;;;;5002489;28;20366;-75
2023/11/23 10:48:44;;;;;;;15.90;9.90;;;9.40;99.90;;;;;;5015284;28;20412;-77
2023/11/23 10:51:30;;;;;;;21.40;14.80;;;9.40;99.90;;;;;;5023061;28;20041;-76
2023/11/23 10:54:16;;;;;;;19.05;13.40;;;9.50;99.90;;;;;;5007620;28;20037;-76
2023/11/23 10:57:04;;;;;;;18.75;13.32;;;9.50;99.90;;;;;;5021228;28;20037;-76
2023/11/23 10:59:51;;;;;;;19.02;14.40;;;9.60;99.90;;;;;;5001876;28;20048;-76
2023/11/23 11:02:39;;;;;;;22.15;14.07;;;9.60;99.90;;;;;;5029841;28;20049;-76
2023/11/23 11:05:34;;;;;;;17.02;12.05;;;9.60;99.90;;;;;;5045972;28;20523;-76
2023/11/23 11:08:20;;;;;;;17.10;12.52;;;9.60;99.90;;;;;;5012654;28;20053;-76
2023/11/23 11:11:12;;;;;;;16.92;12.18;;;9.60;99.90;;;;;;5007434;28;20043;-76
2023/11/23 11:14:02;;;;;;;18.02;12.80;;;9.60;99.90;;;;;;5035849;28;20037;-76
2023/11/23 11:16:48;;;;;;;21.02;14.23;;;9.60;99.90;;;;;;5003551;28;20042;-78
2023/11/23 11:19:49;;;;;;;20.75;14.30;;;9.70;99.90;;;;;;5005499;28;20030;-78
2023/11/23 11:22:35;;;;;;;18.33;12.02;;;9.60;99.90;;;;;;4992989;28;20038;-77
2023/11/23 11:25:22;;;;;;;15.52;11.82;;;9.60;99.90;;;;;;5017916;28;20104;-77
2023/11/23 11:28:17;;;;;;;16.45;12.00;;;9.60;99.90;;;;;;5027150;28;20049;-78
2023/11/23 11:31:07;;;;;;;16.88;11.25;;;9.70;99.90;;;;;;5026066;28;20103;-78
2023/11/23 11:33:53;;;;;;;20.65;12.20;;;9.70;99.90;;;;;;5034191;28;20056;-78
2023/11/23 11:36:39;;;;;;;14.23;12.00;;;9.70;99.90;;;;;;5040663;28;20063;-78
2023/11/23 11:39:32;;;;;;;15.98;11.15;;;9.70;99.90;;;;;;5042420;28;20044;-78
2023/11/23 11:42:19;;;;;;;15.93;10.93;;;9.80;99.90;;;;;;5037260;28;20036;-77
2023/11/23 11:45:09;;;;;;;16.50;11.00;;;9.80;99.90;;;;;;5028017;28;20551;-78
2023/11/23 11:47:57;;;;;;;14.55;9.98;;;9.90;99.90;;;;;;5058917;28;20094;-77
2023/11/23 11:50:44;;;;;;;13.77;10.10;;;9.90;99.90;;;;;;5046711;28;20098;-77
2023/11/23 11:53:30;;;;;;;16.13;10.38;;;9.90;99.90;;;;;;5003103;28;20053;-78
2023/11/23 11:56:17;;;;;;;15.40;10.77;;;10.00;99.90;;;;;;5023568;28;20041;-78
2023/11/23 11:59:04;;;;;;;15.13;9.05;;;10.00;99.90;;;;;;5032990;28;20037;-77
2023/11/23 12:01:50;;;;;;;16.75;11.20;;;10.00;99.90;;;;;;5016320;28;20397;-78
2023/11/23 12:04:38;;;;;;;14.32;10.95;;;10.10;99.90;;;;;;5006355;28;20042;-77
2023/11/23 12:07:24;;;;;;;15.33;10.90;;;10.10;99.90;;;;;;5016599;28;20053;-77
2023/11/23 12:10:10;;;;;;;15.32;10.10;;;10.10;99.90;;;;;;5017134;28;20291;-77
2023/11/23 12:12:56;;;;;;;16.05;10.15;;;10.20;99.90;;;;;;5016840;28;20041;-77
2023/11/23 12:15:43;;;;;;;19.08;10.65;;;10.20;99.90;;;;;;4990673;28;20402;-76
2023/11/23 12:18:35;;;;;;;16.02;10.13;;;10.20;99.90;;;;;;5011163;28;20117;-78
2023/11/23 12:21:21;;;;;;;14.40;10.68;;;10.20;99.90;;;;;;5000057;28;20076;-77
2023/11/23 12:24:07;;;;;;;14.90;10.10;;;10.20;99.90;;;;;;5004859;28;20108;-77
2023/11/23 12:26:54;;;;;;;17.17;11.43;;;10.20;99.90;;;;;;5038456;28;20037;-78
2023/11/23 12:29:43;;;;;;;18.65;10.55;;;10.20;99.90;;;;;;5028493;28;20041;-77
2023/11/23 12:32:29;;;;;;;15.77;10.52;;;10.20;99.90;;;;;;5019057;28;20041;-77
2023/11/23 12:35:15;;;;;;;17.40;10.23;;;10.20;99.90;;;;;;5023955;28;20083;-78
2023/11/23 12:38:02;;;;;;;16.48;11.57;;;10.30;99.90;;;;;;5011332;28;20042;-77
2023/11/23 12:40:48;;;;;;;15.75;10.77;;;10.20;99.90;;;;;;5007914;28;20548;-77
2023/11/23 12:43:35;;;;;;;18.73;12.07;;;10.20;99.90;;;;;;5005053;28;20050;-77
2023/11/23 12:46:21;;;;;;;17.17;10.50;;;10.20;99.90;;;;;;4993484;28;20425;-77
2023/11/23 12:49:07;;;;;;;19.02;11.10;;;10.30;99.90;;;;;;5023367;28;20045;-77
2023/11/23 12:51:55;;;;;;;18.05;11.95;;;10.30;99.90;;;;;;5008238;28;20816;-77
2023/11/23 12:54:42;;;;;;;15.88;10.48;;;10.30;99.90;;;;;;5037667;28;20128;-77
2023/11/23 12:57:29;;;;;;;14.30;10.13;;;10.30;99.90;;;;;;5024242;28;20128;-77
2023/11/23 13:00:16;;;;;;;17.35;10.80;;;10.30;99.90;;;;;;5026251;28;20046;-76
2023/11/23 13:03:04;;;;;;;15.98;10.35;;;10.30;99.90;;;;;;5011564;28;20473;-78
2023/11/23 13:05:54;;;;;;;20.77;11.63;;;10.30;99.90;;;;;;5006083;28;20414;-78
2023/11/23 13:08:42;;;;;;;18.52;10.40;;;10.30;99.90;;;;;;5001385;28;20541;-78
2023/11/23 13:11:28;;;;;;;15.35;10.90;;;10.30;99.90;;;;;;5005670;28;20111;-77
2023/11/23 13:14:15;;;;;;;18.00;11.48;;;10.30;99.90;;;;;;5032696;28;20045;-78
2023/11/23 13:17:02;;;;;;;20.70;12.53;;;10.30;99.90;;;;;;5039236;28;20033;-78
2023/11/23 13:19:48;;;;;;;16.23;9.80;;;10.30;99.90;;;;;;5038038;28;20116;-78
2023/11/23 13:22:35;;;;;;;16.95;11.27;;;10.40;99.90;;;;;;5036221;28;20076;-78
2023/11/23 13:25:21;;;;;;;15.90;10.52;;;10.30;99.90;;;;;;5028830;28;20526;-77
2023/11/23 13:28:08;;;;;;;18.58;10.90;;;10.30;99.90;;;;;;5001981;28;20574;-78
2023/11/23 13:30:56;;;;;;;17.08;10.68;;;10.40;99.90;;;;;;5034794;28;20114;-78
2023/11/23 13:33:43;;;;;;;18.42;9.63;;;10.40;99.90;;;;;;5026123;28;20134;-78
2023/11/23 13:36:34;;;;;;;18.48;11.07;;;10.40;99.90;;;;;;5041709;28;20037;-78
2023/11/23 13:39:21;;;;;;;19.92;10.63;;;10.40;99.90;;;;;;5000182;28;20140;-77
2023/11/23 13:42:07;;;;;;;17.85;9.52;;;10.40;99.90;;;;;;5011988;28;20103;-78
2023/11/23 13:44:54;;;;;;;13.75;10.85;;;10.50;99.90;;;;;;5041922;28;20857;-77
2023/11/23 13:47:42;;;;;;;14.27;9.95;;;10.50;99.90;;;;;;5027373;28;20057;-77
2023/11/23 13:50:28;;;;;;;18.05;9.15;;;10.40;99.90;;;;;;5025160;28;20540;-78
2023/11/23 13:53:14;;;;;;;17.30;9.75;;;10.40;99.90;;;;;;5002497;28;20573;-78
2023/11/23 13:56:00;;;;;;;19.15;11.98;;;10.40;99.90;;;;;;5004279;28;20080;-78
2023/11/23 13:58:46;;;;;;;15.18;9.30;;;10.50;99.90;;;;;;5042283;28;20068;-78
2023/11/23 14:01:34;;;;;;;16.02;10.25;;;10.50;99.90;;;;;;5056524;28;20033;-78
2023/11/23 14:04:20;;;;;;;13.10;9.68;;;10.40;99.90;;;;;;5030086;28;20049;-78
2023/11/23 14:07:07;;;;;;;16.38;10.45;;;10.40;99.90;;;;;;5022561;28;20072;-78
2023/11/23 14:09:53;;;;;;;19.55;9.90;;;10.40;99.90;;;;;;4990179;28;20052;-78
2023/11/23 14:12:40;;;;;;;18.73;10.57;;;10.40;99.90;;;;;;5006552;28;20094;-78
2023/11/23 14:15:26;;;;;;;19.80;10.97;;;10.40;99.90;;;;;;5006501;28;20518;-78
2023/11/23 14:18:13;;;;;;;13.70;9.90;;;10.40;99.90;;;;;;5003483;28;20069;-78
2023/11/23 14:21:02;;;;;;;17.63;11.18;;;10.40;99.90;;;;;;5013376;28;20458;-78